Time;durP1;ratioP1;P1;durP2;ratioP2;P2;SDS_P1;SDS_P2;PMS_P1;PMS_P2;Temp;Humidity;BMP_temperature;BMP_pressure;BME280_temperature;BME280_humidity;BME280_pressure;Samples;Min_cycle;Max_cycle;Signal;HPM_P1;HPM_P2
2021/03/25 00:00:37;;;;;;;13.20;10.17;;;;;;;4.59;83.18;99185.06;4925308;28;101886;-92
2021/03/25 00:03:09;;;;;;;15.40;10.57;;;;;;;4.63;82.08;99168.34;4916965;28;101846;-92
2021/03/25 00:05:38;;;;;;;14.17;10.10;;;;;;;4.53;82.76;99170.47;4928128;28;102595;-91
2021/03/25 00:08:06;;;;;;;15.53;10.97;;;;;;;4.50;83.48;99174.97;4885617;28;102510;-92
2021/03/25 00:10:37;;;;;;;12.27;9.23;;;;;;;4.48;83.68;99171.56;4899270;28;102352;-92
2021/03/25 00:13:06;;;;;;;13.33;10.10;;;;;;;4.57;83.35;99176.44;4910626;28;101826;-93
2021/03/25 00:15:34;;;;;;;15.57;11.90;;;;;;;4.62;82.85;99172.72;4932272;28;102582;-93
2021/03/25 00:18:02;;;;;;;14.70;9.70;;;;;;;4.59;83.31;99166.75;4908439;28;102564;-91
2021/03/25 00:20:29;;;;;;;16.17;11.50;;;;;;;4.70;82.61;99164.53;4897193;28;101795;-90
2021/03/25 00:22:57;;;;;;;13.27;9.60;;;;;;;4.67;82.24;99164.66;4901874;28;101809;-92
2021/03/25 00:25:27;;;;;;;10.87;8.77;;;;;;;4.69;81.54;99157.59;4916412;28;102791;-93
2021/03/25 00:27:54;;;;;;;15.07;9.93;;;;;;;4.54;83.10;99158.25;4915654;28;102452;-92
2021/03/25 00:30:27;;;;;;;15.53;11.40;;;;;;;4.35;83.24;99152.06;4898916;28;101755;-93
2021/03/25 00:32:55;;;;;;;14.87;11.57;;;;;;;4.52;84.04;99160.09;4916514;28;101795;-93
2021/03/25 00:35:24;;;;;;;15.30;10.97;;;;;;;4.50;84.70;99160.13;4907428;28;104408;-92
2021/03/25 00:37:51;;;;;;;15.27;10.97;;;;;;;4.51;83.59;99158.38;4917129;28;102945;-92
2021/03/25 00:40:18;;;;;;;16.33;11.97;;;;;;;4.52;82.99;99152.25;4915716;28;101626;-91
2021/03/25 00:42:45;;;;;;;14.00;10.33;;;;;;;4.57;83.21;99158.13;4916509;28;101686;-91
2021/03/25 00:45:15;;;;;;;16.43;11.90;;;;;;;4.47;83.63;99159.41;4915838;28;103164;-92
2021/03/25 00:47:44;;;;;;;12.33;9.80;;;;;;;4.41;84.38;99157.88;4907301;28;103254;-92
2021/03/25 00:50:18;;;;;;;15.73;10.83;;;;;;;4.48;83.81;99158.50;4899009;28;101659;-93
2021/03/25 00:52:45;;;;;;;15.10;11.57;;;;;;;4.39;84.14;99145.78;4917295;28;101802;-92
2021/03/25 00:55:13;;;;;;;16.53;10.47;;;;;;;4.40;84.38;99150.97;4898893;28;102886;-92
2021/03/25 00:57:40;;;;;;;20.67;11.10;;;;;;;4.34;84.64;99155.56;4917186;28;102858;-92
2021/03/25 01:00:09;;;;;;;15.33;11.07;;;;;;;4.22;85.63;99156.06;4916692;28;101732;-92
2021/03/25 01:02:36;;;;;;;12.67;9.47;;;;;;;4.24;84.99;99151.63;4908049;28;102097;-91
2021/03/25 01:05:06;;;;;;;17.67;12.67;;;;;;;4.20;84.54;99142.19;4898626;28;103944;-91
2021/03/25 01:07:33;;;;;;;19.20;11.60;;;;;;;3.99;86.86;99139.50;4897815;28;109290;-92
2021/03/25 01:10:00;;;;;;;21.00;12.43;;;;;;;3.94;87.13;99138.84;4905072;28;101678;-92
2021/03/25 01:12:27;;;;;;;14.87;9.43;;;;;;;4.06;86.82;99146.22;4917207;28;101756;-91
2021/03/25 01:14:54;;;;;;;13.97;11.53;;;;;;;4.08;86.67;99136.53;4917598;28;103234;-91
2021/03/25 01:17:21;;;;;;;16.50;12.53;;;;;;;4.13;86.54;99140.75;4932997;28;102769;-93
2021/03/25 01:19:49;;;;;;;18.13;11.53;;;;;;;4.08;86.51;99135.69;4917201;28;102220;-92
2021/03/25 01:22:17;;;;;;;14.93;11.37;;;;;;;4.13;85.72;99135.53;4917235;28;101659;-92
2021/03/25 01:24:44;;;;;;;15.37;10.23;;;;;;;4.20;85.11;99126.50;4916883;28;105468;-92
2021/03/25 01:27:12;;;;;;;14.77;10.20;;;;;;;4.20;84.33;99139.59;4902945;28;102412;-91
2021/03/25 01:29:40;;;;;;;16.17;11.20;;;;;;;3.98;84.53;99131.75;4885616;28;101738;-92
2021/03/25 01:32:08;;;;;;;12.23;9.50;;;;;;;3.83;85.56;99132.31;4917559;28;101789;-93
2021/03/25 01:34:35;;;;;;;14.50;11.40;;;;;;;3.77;84.98;99124.72;4880073;28;104078;-91
2021/03/25 01:37:04;;;;;;;14.97;9.73;;;;;;;3.81;85.92;99121.94;4901307;28;102721;-89
2021/03/25 01:39:44;;;;;;;19.93;13.13;;;;;;;3.61;88.19;99120.97;4880196;28;101773;-91
2021/03/25 01:42:23;;;;;;;21.30;13.40;;;;;;;3.78;89.31;99114.22;4904556;28;102541;-91
2021/03/25 01:44:51;;;;;;;17.90;10.67;;;;;;;3.92;87.62;99116.28;4897369;28;103065;-90
2021/03/25 01:47:19;;;;;;;13.10;9.60;;;;;;;3.96;85.35;99113.47;4881686;28;106129;-92
2021/03/25 01:49:48;;;;;;;18.70;12.10;;;;;;;3.69;84.76;99105.84;4894295;28;101691;-92
2021/03/25 01:52:43;;;;;;;13.67;11.80;;;;;;;3.55;86.37;99114.22;4932355;28;101837;-92
2021/03/25 01:55:31;;;;;;;17.10;12.67;;;;;;;3.61;87.72;99108.78;4899704;28;103487;-93
2021/03/25 01:58:17;;;;;;;14.57;11.47;;;;;;;3.62;88.01;99107.84;4919602;28;102722;-93
2021/03/25 02:00:53;;;;;;;13.93;10.70;;;;;;;3.68;88.01;99104.16;4899652;28;103327;-91
2021/03/25 02:03:50;;;;;;;14.90;11.17;;;;;;;3.61;89.31;99111.38;4906578;28;101913;-92
2021/03/25 02:06:32;;;;;;;17.13;11.47;;;;;;;3.69;88.93;99098.88;4909514;28;102423;-92
2021/03/25 02:09:08;;;;;;;16.93;9.73;;;;;;;3.80;88.06;99093.22;4909818;28;103676;-91
2021/03/25 02:12:18;;;;;;;15.23;10.87;;;;;;;3.80;87.94;99096.69;4903844;28;102616;-93
2021/03/25 02:14:53;;;;;;;13.37;11.00;;;;;;;3.78;88.43;99095.06;4880156;28;101612;-92
2021/03/25 02:17:26;;;;;;;14.47;12.10;;;;;;;3.75;88.32;99093.41;4899310;28;103002;-93
2021/03/25 02:20:39;;;;;;;18.27;11.93;;;;;;;3.71;88.96;99090.97;4881968;28;102988;-91
2021/03/25 02:23:22;;;;;;;17.80;10.67;;;;;;;3.76;88.30;99089.88;4891194;28;102104;-92
2021/03/25 02:25:54;;;;;;;16.73;11.80;;;;;;;3.76;87.74;99084.66;4924401;28;102289;-93
2021/03/25 02:28:44;;;;;;;14.67;9.80;;;;;;;3.84;87.30;99082.63;4919963;28;103265;-92
2021/03/25 02:31:16;;;;;;;13.00;8.93;;;;;;;3.87;87.09;99074.66;4899059;28;103305;-90
2021/03/25 02:33:51;;;;;;;11.93;8.60;;;;;;;3.91;87.42;99084.06;4916749;28;101589;-91
2021/03/25 02:36:32;;;;;;;14.60;10.60;;;;;;;3.90;87.00;99082.34;4907387;28;103837;-92
2021/03/25 02:39:06;;;;;;;17.83;9.93;;;;;;;3.99;85.97;99082.00;4920512;28;108881;-93
2021/03/25 02:41:37;;;;;;;13.47;9.03;;;;;;;4.05;85.68;99076.50;4920884;28;102677;-92
2021/03/25 02:44:10;;;;;;;12.73;10.53;;;;;;;3.97;86.48;99075.97;4907098;28;101637;-93
2021/03/25 02:46:43;;;;;;;12.17;8.23;;;;;;;3.99;85.77;99084.59;4898713;28;101654;-91
2021/03/25 02:49:16;;;;;;;15.93;10.93;;;;;;;4.01;85.79;99080.16;4898859;28;102393;-92
2021/03/25 02:51:51;;;;;;;13.50;9.20;;;;;;;4.08;85.33;99086.84;4909543;28;103311;-92
2021/03/25 02:54:21;;;;;;;13.23;9.53;;;;;;;3.97;85.77;99080.34;4881300;28;102124;-92
2021/03/25 02:56:52;;;;;;;14.07;9.27;;;;;;;4.04;85.48;99073.97;4916365;28;102352;-91
2021/03/25 02:59:25;;;;;;;13.10;8.83;;;;;;;4.12;84.93;99076.28;4917662;28;102273;-92
2021/03/25 03:01:58;;;;;;;12.20;9.97;;;;;;;4.08;84.67;99079.00;4903292;28;102434;-92
2021/03/25 03:04:31;;;;;;;13.93;8.90;;;;;;;4.05;85.48;99075.66;4908121;28;102482;-93
2021/03/25 03:07:07;;;;;;;11.40;7.83;;;;;;;4.09;85.32;99072.88;4918754;28;101817;-93
2021/03/25 03:09:43;;;;;;;9.60;7.10;;;;;;;4.13;84.45;99072.75;4901703;28;105102;-91
2021/03/25 03:12:39;;;;;;;11.87;8.53;;;;;;;4.11;84.14;99078.03;4889610;28;103359;-92
2021/03/25 03:15:12;;;;;;;11.50;9.03;;;;;;;4.06;85.02;99073.00;4898460;28;101646;-93
2021/03/25 03:17:45;;;;;;;9.20;7.80;;;;;;;4.08;85.15;99065.94;4900208;28;101832;-91
2021/03/25 03:20:39;;;;;;;11.10;8.90;;;;;;;4.07;85.16;99072.06;4897699;28;103682;-93
2021/03/25 03:23:34;;;;;;;10.93;9.20;;;;;;;4.08;84.76;99071.16;4873752;28;106968;-92
2021/03/25 03:26:07;;;;;;;9.90;8.47;;;;;;;4.09;84.77;99072.88;4882677;28;101777;-92
2021/03/25 03:28:38;;;;;;;10.77;8.80;;;;;;;4.01;84.98;99061.84;4884717;28;101945;-92
2021/03/25 03:31:23;;;;;;;10.87;7.10;;;;;;;4.06;85.02;99070.38;4889607;28;102953;-92
2021/03/25 03:33:55;;;;;;;12.43;8.30;;;;;;;4.03;84.61;99067.91;4882632;28;105000;-93
2021/03/25 03:36:24;;;;;;;11.40;8.77;;;;;;;3.99;84.87;99071.53;4901107;28;101713;-92
2021/03/25 03:38:57;;;;;;;13.67;8.13;;;;;;;3.99;84.62;99081.13;4902563;28;101787;-92
2021/03/25 03:41:30;;;;;;;11.10;8.47;;;;;;;3.91;85.48;99081.44;4900666;28;103171;-92
2021/03/25 03:44:03;;;;;;;11.83;8.80;;;;;;;3.96;85.13;99078.63;4901485;28;102966;-92
2021/03/25 03:46:32;;;;;;;13.57;9.80;;;;;;;3.88;85.50;99078.94;4883708;28;102277;-92
2021/03/25 03:49:07;;;;;;;14.40;10.00;;;;;;;3.82;86.10;99079.19;4902002;28;101794;-92
2021/03/25 03:51:40;;;;;;;11.77;9.63;;;;;;;3.90;85.75;99082.34;4901017;28;102901;-92
2021/03/25 03:54:07;;;;;;;12.40;10.10;;;;;;;3.90;85.60;99077.13;4891581;28;102434;-92
2021/03/25 03:56:41;;;;;;;12.10;8.87;;;;;;;3.94;85.60;99077.84;4904744;28;102308;-92
2021/03/25 03:59:22;;;;;;;10.87;8.47;;;;;;;3.93;84.89;99082.22;4919925;28;101632;-93
2021/03/25 04:01:58;;;;;;;12.13;8.77;;;;;;;3.91;85.49;99073.59;4918388;28;102576;-87
2021/03/25 04:04:31;;;;;;;14.03;8.70;;;;;;;3.92;84.97;99077.06;4910482;28;103242;-92
2021/03/25 04:07:17;;;;;;;9.20;8.20;;;;;;;3.92;85.29;99070.09;4890442;28;102437;-88
2021/03/25 04:10:19;;;;;;;10.60;9.00;;;;;;;3.84;85.29;99077.38;4919854;28;101701;-91
2021/03/25 04:12:55;;;;;;;15.07;8.87;;;;;;;3.87;85.83;99077.25;4892258;28;103068;-88
2021/03/25 04:15:25;;;;;;;11.67;8.47;;;;;;;3.92;84.86;99070.09;4879725;28;103774;-90
2021/03/25 04:18:10;;;;;;;13.00;8.93;;;;;;;3.85;85.01;99073.84;4894594;28;102538;-86
2021/03/25 04:21:39;;;;;;;10.13;7.77;;;;;;;3.90;85.04;99073.69;4819452;29;102537;-92
2021/03/25 04:24:30;;;;;;;9.80;7.57;;;;;;;3.92;84.82;99074.47;4820166;29;102772;-92
2021/03/25 04:31:09;;;;;;;10.53;7.70;;;;;;;3.93;85.15;99074.38;4828482;29;102637;-91
2021/03/25 04:33:39;;;;;;;13.60;8.57;;;;;;;3.86;85.56;99064.25;4835622;29;102583;-92
2021/03/25 04:36:15;;;;;;;8.47;6.40;;;;;;;3.90;84.95;99061.44;4842382;29;102066;-92
2021/03/25 04:38:44;;;;;;;14.20;8.90;;;;;;;3.84;84.89;99060.84;4871807;28;103024;-92
2021/03/25 04:41:14;;;;;;;12.17;8.03;;;;;;;3.82;85.34;99068.72;4916035;28;102285;-90
2021/03/25 04:43:43;;;;;;;11.13;8.03;;;;;;;3.79;85.29;99063.63;4910116;28;102266;-92
2021/03/25 04:55:18;;;;;;;10.40;8.07;;;;;;;3.80;85.47;99070.56;4846360;29;103641;-78
2021/03/25 04:57:54;;;;;;;10.80;7.97;;;;;;;3.80;85.30;99074.94;4843901;29;106901;-81
2021/03/25 05:00:25;;;;;;;12.57;8.37;;;;;;;3.78;85.24;99067.16;4815116;29;104825;-79
2021/03/25 05:02:54;;;;;;;10.57;8.17;;;;;;;3.72;85.66;99067.41;4814986;29;102557;-81
2021/03/25 05:05:26;;;;;;;9.97;8.00;;;;;;;3.79;84.94;99074.06;4814259;29;102751;-85
2021/03/25 05:07:58;;;;;;;9.57;8.50;;;;;;;3.66;86.12;99066.78;4814302;29;105202;-80
2021/03/25 05:10:33;;;;;;;10.77;8.60;;;;;;;3.74;85.21;99073.41;4814020;29;105076;-82
2021/03/25 05:13:00;;;;;;;12.00;8.57;;;;;;;3.69;85.74;99069.28;4813373;29;102713;-82
2021/03/25 05:15:31;;;;;;;11.23;9.07;;;;;;;3.66;86.27;99072.00;4816439;29;102667;-81
2021/03/25 05:18:12;;;;;;;12.33;9.10;;;;;;;3.73;85.56;99074.34;4849595;28;105323;-82
2021/03/25 05:20:42;;;;;;;12.40;9.07;;;;;;;3.75;85.69;99075.13;4810253;29;103680;-80
2021/03/25 05:23:24;;;;;;;12.87;8.50;;;;;;;3.77;85.14;99075.03;4818719;29;102708;-78
2021/03/25 05:25:59;;;;;;;12.17;7.50;;;;;;;3.70;85.96;99079.69;4817724;29;102580;-84
2021/03/25 05:28:32;;;;;;;11.83;8.37;;;;;;;3.70;85.83;99079.69;4822944;29;105585;-92
2021/03/25 05:31:01;;;;;;;12.13;8.10;;;;;;;3.70;85.53;99082.28;4819725;29;102834;-88
2021/03/25 05:33:32;;;;;;;11.30;8.00;;;;;;;3.72;85.73;99083.09;4814066;29;102506;-90
2021/03/25 05:36:02;;;;;;;10.70;8.53;;;;;;;3.58;85.67;99082.75;4817500;29;103248;-91
2021/03/25 05:38:29;;;;;;;12.03;9.30;;;;;;;3.67;86.00;99085.03;4821452;29;102827;-91
2021/03/25 05:41:02;;;;;;;10.87;8.67;;;;;;;3.66;85.48;99088.53;4830437;29;103819;-87
2021/03/25 05:44:15;;;;;;;16.53;12.27;;;;;;;3.71;85.96;99090.97;4826967;29;103238;-89
2021/03/25 05:56:43;;;;;;;11.27;8.50;;;;;;;3.91;85.29;99099.75;4843523;28;102868;-89
2021/03/25 05:59:15;;;;;;;12.20;8.90;;;;;;;4.02;84.03;99097.56;4843999;29;102973;-92
2021/03/25 06:01:51;;;;;;;11.63;7.87;;;;;;;4.14;83.79;99100.59;4849759;29;102834;-93
2021/03/25 06:04:22;;;;;;;12.87;9.00;;;;;;;4.03;84.86;99098.41;4846603;29;103322;-91
2021/03/25 06:07:00;;;;;;;12.07;8.67;;;;;;;4.19;84.24;99094.25;4849755;29;102548;-92
2021/03/25 06:09:39;;;;;;;14.03;9.70;;;;;;;4.21;83.97;99105.50;4849412;29;101599;-93
2021/03/25 06:12:39;;;;;;;10.77;8.20;;;;;;;4.35;83.74;99100.56;4845240;29;101562;-93
2021/03/25 06:19:33;;;;;;;11.77;8.33;;;;;;;4.52;82.65;99112.97;4748022;29;102985;-91
2021/03/25 06:22:07;;;;;;;10.00;8.00;;;;;;;4.62;82.78;99103.81;4750214;29;102804;-87
2021/03/25 06:24:57;;;;;;;12.63;8.07;;;;;;;4.81;82.35;99109.97;4748716;29;102656;-90
2021/03/25 06:27:38;;;;;;;13.03;9.60;;;;;;;4.80;82.53;99113.50;4750459;29;102999;-92
2021/03/25 06:30:10;;;;;;;14.23;9.90;;;;;;;4.87;81.88;99120.19;4756578;29;103146;-91
2021/03/25 06:32:49;;;;;;;14.07;10.23;;;;;;;5.01;81.23;99112.59;4771793;29;102231;-93
2021/03/25 06:35:23;;;;;;;14.60;9.77;;;;;;;5.23;80.45;99118.59;4797081;29;102631;-92
2021/03/25 06:37:57;;;;;;;11.07;9.67;;;;;;;5.10;81.22;99111.34;4789401;29;102906;-92
2021/03/25 06:40:28;;;;;;;12.50;9.00;;;;;;;5.24;81.32;99115.06;4791849;29;102582;-92
2021/03/25 06:43:22;;;;;;;11.57;9.80;;;;;;;5.31;80.89;99120.00;4786555;29;102509;-85
2021/03/25 06:45:57;;;;;;;13.17;9.90;;;;;;;5.14;80.66;99124.22;4797151;29;101784;-93
2021/03/25 06:48:38;;;;;;;15.20;9.90;;;;;;;5.25;80.97;99114.13;4816027;29;102072;-91
2021/03/25 06:51:21;;;;;;;12.50;10.17;;;;;;;5.26;80.68;99107.97;4947250;23;102723;-92
2021/03/25 06:53:58;;;;;;;11.50;9.87;;;;;;;5.24;80.53;99112.44;4918107;28;101703;-93
2021/03/25 06:56:32;;;;;;;11.70;9.77;;;;;;;5.50;80.45;99116.50;4910441;28;101689;-92
2021/03/25 07:02:21;;;;;;;13.47;9.63;;;;;;;5.82;78.63;99122.91;4833553;29;102839;-91
2021/03/25 07:04:52;;;;;;;13.17;9.40;;;;;;;5.84;78.37;99116.66;4827266;29;101802;-92
2021/03/25 07:07:22;;;;;;;13.57;9.73;;;;;;;5.86;78.71;99121.88;4831991;29;101686;-92
2021/03/25 07:09:50;;;;;;;11.97;9.30;;;;;;;6.03;77.80;99121.94;4839659;29;102762;-90
2021/03/25 07:12:23;;;;;;;12.70;9.67;;;;;;;6.15;76.78;99120.47;4839799;29;102822;-91
2021/03/25 07:14:52;;;;;;;11.53;9.47;;;;;;;6.20;76.99;99116.72;4839835;29;101697;-92
2021/03/25 07:17:31;;;;;;;14.93;9.63;;;;;;;6.21;76.48;99115.81;4859013;29;101877;-92
2021/03/25 07:20:04;;;;;;;18.20;9.77;;;;;;;6.39;76.27;99117.56;4841379;28;104389;-91
2021/03/25 07:22:33;;;;;;;10.80;8.67;;;;;;;6.58;75.47;99109.59;4837222;29;103731;-91
2021/03/25 07:25:19;;;;;;;14.57;9.03;;;;;;;6.82;74.93;99110.16;4837499;29;102489;-88
2021/03/25 07:27:47;;;;;;;11.43;8.50;;;;;;;6.89;74.13;99122.03;4840780;29;103427;-92
2021/03/25 07:30:44;;;;;;;10.07;8.23;;;;;;;7.04;73.22;99126.53;4842334;29;102334;-91
2021/03/25 07:33:15;;;;;;;10.13;8.13;;;;;;;7.49;72.25;99132.00;4824189;29;101955;-90
2021/03/25 07:35:45;;;;;;;10.67;9.20;;;;;;;7.55;70.70;99126.41;4839900;29;101680;-89
2021/03/25 07:38:24;;;;;;;11.40;8.73;;;;;;;7.80;71.43;99119.84;4841345;29;102113;-90
2021/03/25 07:41:05;;;;;;;11.33;8.73;;;;;;;7.98;70.52;99118.84;4841390;29;102570;-90
2021/03/25 07:43:55;;;;;;;13.50;9.53;;;;;;;8.18;69.91;99122.06;4841685;29;101949;-90
2021/03/25 07:46:31;;;;;;;13.13;8.87;;;;;;;8.64;68.89;99120.34;4847633;29;101649;-88
2021/03/25 07:49:13;;;;;;;12.00;7.33;;;;;;;8.94;68.30;99122.97;4860463;29;102408;-90
2021/03/25 07:51:47;;;;;;;11.20;7.93;;;;;;;9.19;67.36;99122.34;4858723;29;102204;-88
2021/03/25 07:54:25;;;;;;;15.73;9.27;;;;;;;9.47;66.14;99117.09;4855977;29;104057;-84
2021/03/25 07:56:58;;;;;;;11.77;8.77;;;;;;;9.27;66.08;99117.47;4849120;29;101642;-87
2021/03/25 07:59:28;;;;;;;11.97;8.30;;;;;;;9.63;65.49;99117.00;4853626;29;102721;-85
2021/03/25 08:02:19;;;;;;;14.80;9.15;;;;;;;9.56;65.18;99121.81;5676811;23;104731;31
2021/03/25 08:05:18;;;;;;;10.67;8.60;;;;;;;9.90;64.10;99126.69;5865015;23;104381;31
2021/03/25 08:14:09;;;;;;;9.85;7.50;;;;;;;10.84;61.07;99120.56;5652856;23;104434;31
2021/03/25 08:16:47;;;;;;;10.20;8.10;;;;;;;11.32;59.27;99126.13;4869994;28;102572;-78
2021/03/25 08:19:27;;;;;;;10.00;8.30;;;;;;;11.46;58.76;99118.09;4917851;23;102822;-79
2021/03/25 08:22:08;;;;;;;11.40;8.50;;;;;;;11.58;58.91;99107.50;4933229;28;101661;-80
2021/03/25 08:25:01;;;;;;;11.07;7.47;;;;;;;12.18;57.58;99118.22;4915130;28;102858;-82
2021/03/25 08:27:47;;;;;;;7.53;6.77;;;;;;;12.14;57.03;99113.25;4931250;28;104073;-80
2021/03/25 08:30:50;;;;;;;14.67;7.93;;;;;;;11.77;57.22;99114.19;4930517;28;102305;-80
2021/03/25 08:33:30;;;;;;;10.23;8.10;;;;;;;11.76;57.80;99113.31;4906121;28;103943;-81
2021/03/25 08:36:10;;;;;;;13.53;8.20;;;;;;;12.10;57.05;99115.28;4929655;28;102778;-80
2021/03/25 08:38:58;;;;;;;11.53;8.43;;;;;;;12.27;56.66;99107.94;4932170;28;103843;-82
2021/03/25 08:41:34;;;;;;;12.17;8.17;;;;;;;12.69;56.98;99110.03;4913922;28;102367;-81
2021/03/25 08:44:10;;;;;;;8.27;7.20;;;;;;;13.13;55.92;99115.56;4932645;28;102283;-82
2021/03/25 08:46:55;;;;;;;10.23;7.93;;;;;;;13.62;54.01;99106.44;4929963;28;104397;-81
2021/03/25 08:49:31;;;;;;;14.37;8.17;;;;;;;12.94;54.34;99119.69;4913282;28;102335;-81
2021/03/25 08:52:05;;;;;;;10.63;7.63;;;;;;;13.74;53.61;99116.09;4917766;28;102517;-80
2021/03/25 08:54:39;;;;;;;11.93;7.23;;;;;;;13.65;52.09;99117.69;4917360;28;102156;-81
2021/03/25 08:57:14;;;;;;;13.43;7.70;;;;;;;14.24;51.99;99106.75;5383187;23;104338;-81
2021/03/25 08:59:47;;;;;;;8.83;7.50;;;;;;;14.10;53.37;99109.69;4923044;28;102435;-80
2021/03/25 12:21:44;;;;;;;11.20;7.70;;;;;;;19.62;40.63;98978.88;5233738;23;103978;-81
2021/03/25 12:24:12;;;;;;;11.48;7.78;;;;;;;20.50;39.30;98982.81;4851317;28;105882;-82
2021/03/25 12:26:39;;;;;;;9.38;6.70;;;;;;;19.73;39.73;98988.50;4871839;28;102793;-81
2021/03/25 12:29:06;;;;;;;10.98;7.63;;;;;;;20.32;38.87;98979.47;4886879;28;102652;-85
2021/03/25 12:31:40;;;;;;;10.73;7.38;;;;;;;19.42;39.95;98973.94;4886338;28;104051;-86
2021/03/25 12:34:30;;;;;;;7.03;5.63;;;;;;;20.68;38.92;98974.63;4867863;28;104232;-84
2021/03/25 12:36:59;;;;;;;8.00;7.20;;;;;;;18.89;39.52;98985.63;4858380;28;103660;-79
2021/03/25 12:39:31;;;;;;;13.48;8.10;;;;;;;19.68;39.79;98975.56;4870216;28;102973;-79
2021/03/25 12:42:02;;;;;;;9.02;6.88;;;;;;;20.18;39.08;98967.47;4875524;28;103892;-79
2021/03/25 12:44:29;;;;;;;9.60;6.93;;;;;;;19.58;38.94;98966.81;4892288;28;103708;-85
2021/03/25 12:47:05;;;;;;;7.35;5.80;;;;;;;19.36;40.83;98963.81;4893760;28;102973;-79
2021/03/25 12:49:50;;;;;;;9.85;6.45;;;;;;;19.39;39.86;98952.81;4873644;28;103450;-78
2021/03/25 12:52:18;;;;;;;8.65;6.60;;;;;;;19.11;39.32;98966.34;4874478;28;103945;-78
2021/03/25 12:54:46;;;;;;;7.50;5.97;;;;;;;19.24;40.24;98960.56;4882920;28;104762;-79
2021/03/25 12:57:18;;;;;;;10.93;6.40;;;;;;;19.04;39.93;98970.66;4883752;28;103385;-78
2021/03/25 12:59:45;;;;;;;8.30;6.60;;;;;;;18.37;41.47;98959.75;4884981;28;103201;-78
2021/03/25 13:02:13;;;;;;;6.80;5.82;;;;;;;18.54;41.39;98961.59;4885773;28;104410;-78
2021/03/25 13:04:41;;;;;;;9.68;5.90;;;;;;;18.74;40.87;98962.25;4877280;28;103353;-80
2021/03/25 13:07:08;;;;;;;7.25;6.43;;;;;;;18.88;40.52;98954.50;5085054;23;105136;-81
2021/03/25 13:09:38;;;;;;;8.25;6.10;;;;;;;18.43;40.75;98959.97;4907252;28;102928;-80
2021/03/25 13:12:10;;;;;;;8.23;6.95;;;;;;;18.27;41.05;98957.13;4901149;28;104610;-79
2021/03/25 13:14:37;;;;;;;8.80;6.43;;;;;;;17.74;42.28;98962.44;4919805;23;104945;-79
2021/03/25 13:17:05;;;;;;;9.20;6.68;;;;;;;18.59;41.51;98961.13;4882854;28;102628;-79
2021/03/25 13:19:52;;;;;;;12.00;7.20;;;;;;;18.44;40.97;98953.63;4903110;28;102940;-78
2021/03/25 13:22:20;;;;;;;10.55;6.80;;;;;;;18.81;40.65;98958.78;4886205;28;104641;-79
2021/03/25 13:24:48;;;;;;;9.80;6.57;;;;;;;19.30;40.33;98948.38;4905452;28;102518;-79
2021/03/25 13:27:16;;;;;;;11.85;7.13;;;;;;;18.75;40.20;98948.72;4909021;28;102771;-79
2021/03/25 13:29:43;;;;;;;10.50;7.13;;;;;;;18.07;41.43;98952.09;4905724;28;102811;-79
2021/03/25 13:32:18;;;;;;;9.43;6.40;;;;;;;18.93;40.70;98937.97;5143999;23;104302;-78
2021/03/25 13:37:39;;;;;;;10.60;6.65;;;;;;;18.10;40.86;98941.13;5055061;23;104876;-79
2021/03/25 14:16:41;;;;;;;6.20;5.10;;;;;;;18.39;40.91;98936.34;5296843;23;104930;-81
2021/03/25 14:41:40;;;;;;;10.05;6.90;;;;;;;17.53;43.54;98945.78;4827334;29;103225;-78
2021/03/25 14:44:09;;;;;;;11.68;8.48;;;;;;;17.32;43.93;98939.84;5427190;23;104762;-77
2021/03/25 16:05:33;;;;;;;8.98;6.70;;;;;;;16.84;44.36;98928.50;5958393;23;105691;31
2021/03/25 16:11:13;;;;;;;8.52;6.18;;;;;;;16.53;44.49;98936.69;5667228;23;104865;-78
2021/03/25 16:13:42;;;;;;;7.80;6.15;;;;;;;16.54;44.37;98933.06;5446195;23;105538;-78
2021/03/25 16:16:10;;;;;;;6.90;6.20;;;;;;;16.47;44.41;98931.06;5158303;23;105679;-81
2021/03/25 16:18:38;;;;;;;15.48;7.03;;;;;;;16.39;44.88;98934.47;5780369;23;109044;-79
2021/03/25 16:21:08;;;;;;;8.60;6.65;;;;;;;16.42;45.77;98934.16;5146554;23;103594;-83
2021/03/25 16:26:49;;;;;;;12.77;8.32;;;;;;;16.10;46.34;98938.94;5953551;23;105841;-78
2021/03/25 16:29:17;;;;;;;11.30;8.43;;;;;;;15.92;47.19;98940.59;5350165;23;108222;-79
2021/03/25 16:31:44;;;;;;;10.57;7.82;;;;;;;15.95;47.04;98948.31;5579101;23;106054;-79
2021/03/25 16:34:12;;;;;;;11.75;7.68;;;;;;;15.95;46.59;98945.66;4904713;28;103365;-82
2021/03/25 16:39:52;;;;;;;15.25;9.05;;;;;;;15.56;49.32;98950.91;5981815;23;105553;31
2021/03/25 16:42:19;;;;;;;11.82;9.02;;;;;;;15.48;49.40;98950.75;4872166;28;102860;-78
2021/03/25 16:47:36;;;;;;;12.73;8.98;;;;;;;15.44;50.08;98957.28;5680811;23;107411;-79
2021/03/25 16:50:07;;;;;;;10.65;8.57;;;;;;;15.30;50.27;98960.31;4869189;23;102919;-79
2021/03/25 17:01:42;;;;;;;14.40;9.63;;;;;;;15.22;50.48;98977.91;5200381;23;104756;31
2021/03/25 17:04:36;;;;;;;12.70;9.83;;;;;;;15.06;50.69;98978.41;5108672;23;105500;31
2021/03/25 17:07:06;;;;;;;13.40;10.33;;;;;;;15.02;51.31;98977.84;4884223;28;103458;-79
2021/03/25 17:09:33;;;;;;;16.67;10.50;;;;;;;14.76;51.81;98975.72;4926804;23;105209;-79
2021/03/25 17:12:01;;;;;;;13.97;10.63;;;;;;;14.76;51.67;98975.72;4892334;28;103053;-79
2021/03/25 17:14:30;;;;;;;13.60;10.43;;;;;;;14.75;52.31;98982.84;4894382;28;106152;-78
2021/03/25 17:16:58;;;;;;;14.30;10.40;;;;;;;14.79;52.09;98986.09;4887080;28;106424;-79
2021/03/25 17:26:01;;;;;;;10.03;6.37;;;;;;;14.81;52.79;98992.97;5985006;23;105129;31
2021/03/25 18:16:24;;;;;;;9.17;7.50;;;;;;;13.45;57.97;99038.75;5151159;23;103391;-82
2021/03/25 18:56:01;;;;;;;12.87;9.90;;;;;;;12.14;61.30;99071.72;5542275;23;105587;-81
2021/03/25 19:04:39;;;;;;;13.23;9.20;;;;;;;11.99;61.49;99074.63;5445829;23;104288;-82
2021/03/25 19:07:07;;;;;;;10.67;9.33;;;;;;;11.96;61.61;99082.78;4920797;28;102172;-82
2021/03/25 19:09:36;;;;;;;11.20;8.70;;;;;;;11.74;61.90;99074.69;4933659;28;102511;-82
2021/03/25 19:12:09;;;;;;;10.20;8.20;;;;;;;11.77;62.22;99085.91;4935875;28;102424;-82
2021/03/25 19:17:46;;;;;;;12.63;9.03;;;;;;;11.78;62.44;99097.34;5974098;23;104443;31
2021/03/25 19:26:40;;;;;;;17.57;11.70;;;;;;;11.37;63.44;99108.13;5844672;23;105099;-81
2021/03/25 19:29:13;;;;;;;14.33;10.47;;;;;;;11.24;64.34;99112.59;5173611;23;104220;-83
2021/03/25 19:31:40;;;;;;;11.97;8.77;;;;;;;11.23;63.98;99111.72;5053127;23;102879;-80
2021/03/25 19:34:18;;;;;;;15.77;11.67;;;;;;;11.02;64.66;99113.19;4956755;23;105304;-80
2021/03/25 19:36:49;;;;;;;11.27;9.90;;;;;;;10.93;65.16;99114.66;4865688;28;102897;-80
2021/03/25 19:39:17;;;;;;;14.40;11.03;;;;;;;10.86;65.30;99113.38;4845171;28;105449;-80
2021/03/25 19:41:45;;;;;;;12.90;10.47;;;;;;;10.84;65.54;99117.06;4887236;28;102771;-80
2021/03/25 19:44:14;;;;;;;12.30;9.80;;;;;;;10.86;65.48;99116.00;4873036;28;103367;-80
2021/03/25 19:46:47;;;;;;;12.20;10.50;;;;;;;10.86;65.65;99117.84;4886183;28;104013;-80
2021/03/25 19:49:14;;;;;;;16.37;11.43;;;;;;;10.70;65.95;99112.69;4862581;28;107434;-80
2021/03/25 19:51:42;;;;;;;17.93;10.50;;;;;;;10.65;65.96;99113.97;4871514;28;102825;-79
2021/03/25 19:54:10;;;;;;;12.60;9.40;;;;;;;10.72;65.89;99124.00;4861545;28;102635;-80
2021/03/25 19:56:38;;;;;;;13.90;9.80;;;;;;;10.89;65.54;99129.03;4866781;28;104528;-80
2021/03/25 19:59:06;;;;;;;13.57;10.90;;;;;;;10.99;65.38;99135.41;4866592;28;103039;-79
2021/03/25 20:01:34;;;;;;;13.53;10.77;;;;;;;11.01;65.51;99135.28;4857313;28;102996;-79
2021/03/25 20:04:02;;;;;;;14.60;11.93;;;;;;;10.91;66.15;99129.78;4872024;28;102606;-80
2021/03/25 20:06:46;;;;;;;16.77;13.50;;;;;;;10.48;67.64;99133.56;4875631;28;104424;-80
2021/03/25 20:09:14;;;;;;;15.90;12.90;;;;;;;10.59;67.41;99136.34;4865932;28;102535;-81
2021/03/25 20:11:41;;;;;;;15.17;12.10;;;;;;;10.54;67.49;99138.44;4864871;28;102871;-81
2021/03/25 20:14:08;;;;;;;17.70;11.87;;;;;;;10.33;68.72;99129.28;4850292;28;102766;-81
2021/03/25 20:16:36;;;;;;;19.23;11.93;;;;;;;10.39;68.65;99134.16;4866213;28;102447;-82
2021/03/25 20:19:04;;;;;;;13.77;10.90;;;;;;;10.43;68.33;99130.38;4885042;28;103251;-82